sensor_id;sensor_type;location;lat;lon;timestamp;pressure;altitude;pressure_sealevel;temperature;humidity
7018;BME280;3549;42.162;24.726;2023-08-30T00:02:23;47497.94;;;-141.97;70.79
7018;BME280;3549;42.162;24.726;2023-08-30T00:04:48;47499.84;;;-141.97;70.29
7018;BME280;3549;42.162;24.726;2023-08-30T00:07:14;47496.00;;;-141.97;69.88
7018;BME280;3549;42.162;24.726;2023-08-30T00:09:40;47503.69;;;-141.97;71.13
7018;BME280;3549;42.162;24.726;2023-08-30T00:12:05;47653.63;;;-141.97;70.85
7018;BME280;3549;42.162;24.726;2023-08-30T00:14:30;47496.00;;;-141.97;70.99
7018;BME280;3549;42.162;24.726;2023-08-30T00:16:57;47469.09;;;-141.97;70.43
7018;BME280;3549;42.162;24.726;2023-08-30T00:19:22;47490.25;;;-141.97;70.02
7018;BME280;3549;42.162;24.726;2023-08-30T00:21:48;47476.78;;;-141.97;70.06
7018;BME280;3549;42.162;24.726;2023-08-30T00:24:13;47482.56;;;-141.97;71.59
7018;BME280;3549;42.162;24.726;2023-08-30T00:26:39;47488.31;;;-141.97;72.29
7018;BME280;3549;42.162;24.726;2023-08-30T00:29:05;47503.69;;;-141.97;72.60
7018;BME280;3549;42.162;24.726;2023-08-30T00:31:30;47482.56;;;-141.97;73.35
7018;BME280;3549;42.162;24.726;2023-08-30T00:33:55;47409.53;;;-141.97;73.48
7018;BME280;3549;42.162;24.726;2023-08-30T00:36:21;47522.91;;;-141.97;73.36
7018;BME280;3549;42.162;24.726;2023-08-30T00:38:47;47488.31;;;-141.97;73.52
7018;BME280;3549;42.162;24.726;2023-08-30T00:41:12;47476.78;;;-141.97;73.15
7018;BME280;3549;42.162;24.726;2023-08-30T00:43:38;47457.56;;;-141.97;73.38
7018;BME280;3549;42.162;24.726;2023-08-30T00:46:04;47538.28;;;-141.97;73.88
7018;BME280;3549;42.162;24.726;2023-08-30T00:48:29;47494.09;;;-141.97;74.03
7018;BME280;3549;42.162;24.726;2023-08-30T00:50:55;47522.91;;;-141.97;73.86
7018;BME280;3549;42.162;24.726;2023-08-30T00:53:20;47497.94;;;-141.97;74.47
7018;BME280;3549;42.162;24.726;2023-08-30T00:55:46;47505.63;;;-141.97;74.88
7018;BME280;3549;42.162;24.726;2023-08-30T00:58:12;47484.47;;;-141.97;74.73
7018;BME280;3549;42.162;24.726;2023-08-30T01:00:38;47532.53;;;-141.97;74.36
7018;BME280;3549;42.162;24.726;2023-08-30T01:03:05;47484.47;;;-141.97;74.50
7018;BME280;3549;42.162;24.726;2023-08-30T01:05:32;47536.38;;;-141.97;74.98
7018;BME280;3549;42.162;24.726;2023-08-30T01:07:57;47492.16;;;-141.97;74.82
7018;BME280;3549;42.162;24.726;2023-08-30T01:10:31;47507.53;;;-141.97;74.86
7018;BME280;3549;42.162;24.726;2023-08-30T01:13:05;47513.31;;;-141.97;74.83
7018;BME280;3549;42.162;24.726;2023-08-30T01:15:33;47505.63;;;-141.97;74.40
7018;BME280;3549;42.162;24.726;2023-08-30T01:18:00;47515.22;;;-141.97;73.91
7018;BME280;3549;42.162;24.726;2023-08-30T01:20:29;47534.44;;;-141.97;73.26
7018;BME280;3549;42.162;24.726;2023-08-30T01:23:17;47519.06;;;-141.97;72.83
7018;BME280;3549;42.162;24.726;2023-08-30T01:28:24;47517.16;;;-141.97;72.26
7018;BME280;3549;42.162;24.726;2023-08-30T01:30:52;47519.06;;;-141.97;72.09
7018;BME280;3549;42.162;24.726;2023-08-30T01:33:19;47465.25;;;-141.97;71.38
7018;BME280;3549;42.162;24.726;2023-08-30T01:35:46;47496.00;;;-141.97;71.27
7018;BME280;3549;42.162;24.726;2023-08-30T01:38:12;47517.16;;;-141.97;71.53
7018;BME280;3549;42.162;24.726;2023-08-30T01:40:41;47680.53;;;-141.97;71.34
7018;BME280;3549;42.162;24.726;2023-08-30T01:43:08;47503.69;;;-141.97;71.21
7018;BME280;3549;42.162;24.726;2023-08-30T01:45:36;47532.53;;;-141.97;71.60
7018;BME280;3549;42.162;24.726;2023-08-30T01:48:03;47730.50;;;-141.97;71.40
7018;BME280;3549;42.162;24.726;2023-08-30T01:50:31;47438.34;;;-141.97;71.59
7018;BME280;3549;42.162;24.726;2023-08-30T01:52:57;47496.00;;;-141.97;71.00
7018;BME280;3549;42.162;24.726;2023-08-30T01:55:25;47482.56;;;-141.97;70.94
7018;BME280;3549;42.162;24.726;2023-08-30T01:57:51;47505.63;;;-141.97;71.03
7018;BME280;3549;42.162;24.726;2023-08-30T02:00:17;47499.84;;;-141.97;70.78
7018;BME280;3549;42.162;24.726;2023-08-30T02:02:42;47503.69;;;-141.97;70.70
7018;BME280;3549;42.162;24.726;2023-08-30T02:05:08;47494.09;;;-141.97;71.43
7018;BME280;3549;42.162;24.726;2023-08-30T02:07:52;47494.09;;;-141.97;71.86
7018;BME280;3549;42.162;24.726;2023-08-30T02:10:25;47497.94;;;-141.97;71.48
7018;BME280;3549;42.162;24.726;2023-08-30T02:12:54;47480.63;;;-141.97;71.60
7018;BME280;3549;42.162;24.726;2023-08-30T02:15:21;47515.22;;;-141.97;71.43
7018;BME280;3549;42.162;24.726;2023-08-30T02:17:49;47549.84;;;-141.97;71.66
7018;BME280;3549;42.162;24.726;2023-08-30T02:20:16;47511.38;;;-141.97;71.40
7018;BME280;3549;42.162;24.726;2023-08-30T02:22:41;47553.69;;;-141.97;71.21
7018;BME280;3549;42.162;24.726;2023-08-30T02:25:07;47613.25;;;-141.97;71.13
7018;BME280;3549;42.162;24.726;2023-08-30T02:27:33;47605.56;;;-141.97;70.91
7018;BME280;3549;42.162;24.726;2023-08-30T02:30:00;47492.16;;;-141.97;70.78
7018;BME280;3549;42.162;24.726;2023-08-30T02:32:25;47484.47;;;-141.97;70.57
7018;BME280;3549;42.162;24.726;2023-08-30T02:34:52;47526.75;;;-141.97;71.24
7018;BME280;3549;42.162;24.726;2023-08-30T02:37:18;47521.00;;;-141.97;71.83
7018;BME280;3549;42.162;24.726;2023-08-30T02:39:44;47509.47;;;-141.97;71.56
7018;BME280;3549;42.162;24.726;2023-08-30T02:42:09;47519.06;;;-141.97;71.82
7018;BME280;3549;42.162;24.726;2023-08-30T02:44:35;47507.53;;;-141.97;72.09
7018;BME280;3549;42.162;24.726;2023-08-30T02:47:00;47549.84;;;-141.97;71.66
7018;BME280;3549;42.162;24.726;2023-08-30T02:49:26;47501.78;;;-141.97;72.05
7018;BME280;3549;42.162;24.726;2023-08-30T02:51:51;47478.72;;;-141.97;72.72
7018;BME280;3549;42.162;24.726;2023-08-30T02:54:16;47551.75;;;-141.97;73.22
7018;BME280;3549;42.162;24.726;2023-08-30T02:56:42;47524.84;;;-141.97;73.01
7018;BME280;3549;42.162;24.726;2023-08-30T02:59:11;47522.91;;;-141.97;73.28
7018;BME280;3549;42.162;24.726;2023-08-30T03:01:37;47467.19;;;-141.97;73.37
7018;BME280;3549;42.162;24.726;2023-08-30T03:04:06;47642.09;;;-141.97;73.56
7018;BME280;3549;42.162;24.726;2023-08-30T03:06:33;47536.38;;;-141.97;73.22
7018;BME280;3549;42.162;24.726;2023-08-30T03:08:59;47490.25;;;-141.97;73.28
7018;BME280;3549;42.162;24.726;2023-08-30T03:11:24;47505.63;;;-141.97;72.78
7018;BME280;3549;42.162;24.726;2023-08-30T03:13:50;47619.03;;;-141.97;72.09
7018;BME280;3549;42.162;24.726;2023-08-30T03:16:16;47553.69;;;-141.97;72.38
7018;BME280;3549;42.162;24.726;2023-08-30T03:18:43;47530.59;;;-141.97;72.19
7018;BME280;3549;42.162;24.726;2023-08-30T03:21:09;47492.16;;;-141.97;72.17
7018;BME280;3549;42.162;24.726;2023-08-30T03:23:35;47699.75;;;-141.97;71.38
7018;BME280;3549;42.162;24.726;2023-08-30T03:26:11;47488.31;;;-141.97;71.32
7018;BME280;3549;42.162;24.726;2023-08-30T03:28:38;47453.72;;;-141.97;70.90
7018;BME280;3549;42.162;24.726;2023-08-30T03:31:23;47482.56;;;-141.97;70.56
7018;BME280;3549;42.162;24.726;2023-08-30T03:33:48;47507.53;;;-141.97;70.53
7018;BME280;3549;42.162;24.726;2023-08-30T03:36:17;47511.38;;;-141.97;70.73
7018;BME280;3549;42.162;24.726;2023-08-30T03:38:43;47524.84;;;-141.97;70.27
7018;BME280;3549;42.162;24.726;2023-08-30T03:41:10;47505.63;;;-141.97;70.96
7018;BME280;3549;42.162;24.726;2023-08-30T03:43:36;47528.69;;;-141.97;70.38
7018;BME280;3549;42.162;24.726;2023-08-30T03:46:01;47526.75;;;-141.97;70.30
7018;BME280;3549;42.162;24.726;2023-08-30T03:48:28;47526.75;;;-141.97;69.32
7018;BME280;3549;42.162;24.726;2023-08-30T03:50:55;47461.41;;;-141.97;69.62
7018;BME280;3549;42.162;24.726;2023-08-30T03:53:20;47497.94;;;-141.97;70.07
7018;BME280;3549;42.162;24.726;2023-08-30T03:55:46;47507.53;;;-141.97;69.42
7018;BME280;3549;42.162;24.726;2023-08-30T03:58:11;47515.22;;;-141.97;68.56
7018;BME280;3549;42.162;24.726;2023-08-30T04:00:38;47538.28;;;-141.97;68.50
7018;BME280;3549;42.162;24.726;2023-08-30T04:03:07;47515.22;;;-141.97;68.30
7018;BME280;3549;42.162;24.726;2023-08-30T04:05:34;47515.22;;;-141.97;69.35
7018;BME280;3549;42.162;24.726;2023-08-30T04:08:01;47496.00;;;-141.97;69.96
7018;BME280;3549;42.162;24.726;2023-08-30T04:10:27;47617.09;;;-141.97;70.51
7018;BME280;3549;42.162;24.726;2023-08-30T04:12:52;47490.25;;;-141.97;70.20
7018;BME280;3549;42.162;24.726;2023-08-30T04:15:18;47538.28;;;-141.97;70.13
7018;BME280;3549;42.162;24.726;2023-08-30T04:17:43;47546.00;;;-141.97;69.13
7018;BME280;3549;42.162;24.726;2023-08-30T04:20:09;47534.44;;;-141.97;68.84
7018;BME280;3549;42.162;24.726;2023-08-30T04:22:36;47524.84;;;-141.97;68.81
7018;BME280;3549;42.162;24.726;2023-08-30T04:25:01;47546.00;;;-141.97;67.90
7018;BME280;3549;42.162;24.726;2023-08-30T04:27:27;47507.53;;;-141.97;68.19
7018;BME280;3549;42.162;24.726;2023-08-30T04:29:52;47544.06;;;-141.97;67.70
7018;BME280;3549;42.162;24.726;2023-08-30T04:32:18;47549.84;;;-141.97;68.28
7018;BME280;3549;42.162;24.726;2023-08-30T04:34:43;47565.22;;;-141.97;68.02
7018;BME280;3549;42.162;24.726;2023-08-30T04:37:08;47515.22;;;-141.97;67.26
7018;BME280;3549;42.162;24.726;2023-08-30T04:39:34;47455.66;;;-141.97;66.40
7018;BME280;3549;42.162;24.726;2023-08-30T04:41:59;47511.38;;;-141.97;66.06
7018;BME280;3549;42.162;24.726;2023-08-30T04:44:25;47503.69;;;-141.97;65.46
7018;BME280;3549;42.162;24.726;2023-08-30T04:46:53;47515.22;;;-141.97;65.98
7018;BME280;3549;42.162;24.726;2023-08-30T04:49:19;47492.16;;;-141.97;66.01
7018;BME280;3549;42.162;24.726;2023-08-30T04:51:44;47519.06;;;-141.97;65.28
7018;BME280;3549;42.162;24.726;2023-08-30T04:54:09;47499.84;;;-141.97;64.24
7018;BME280;3549;42.162;24.726;2023-08-30T04:56:35;47540.22;;;-141.97;63.88
7018;BME280;3549;42.162;24.726;2023-08-30T04:59:00;47503.69;;;-141.97;63.76
7018;BME280;3549;42.162;24.726;2023-08-30T05:01:29;47530.59;;;-141.97;63.10
7018;BME280;3549;42.162;24.726;2023-08-30T05:03:55;47519.06;;;-141.97;63.13
7018;BME280;3549;42.162;24.726;2023-08-30T05:06:20;47511.38;;;-141.97;62.30
7018;BME280;3549;42.162;24.726;2023-08-30T05:08:45;47492.16;;;-141.97;63.10
7018;BME280;3549;42.162;24.726;2023-08-30T05:11:11;47536.38;;;-141.97;64.46
7018;BME280;3549;42.162;24.726;2023-08-30T05:13:36;47488.31;;;-141.97;65.84
7018;BME280;3549;42.162;24.726;2023-08-30T05:16:02;47488.31;;;-141.97;66.54
7018;BME280;3549;42.162;24.726;2023-08-30T05:18:28;47511.38;;;-141.97;65.90
7018;BME280;3549;42.162;24.726;2023-08-30T05:20:54;47515.22;;;-141.97;66.49
7018;BME280;3549;42.162;24.726;2023-08-30T05:23:19;47488.31;;;-141.97;66.24
7018;BME280;3549;42.162;24.726;2023-08-30T05:25:44;47496.00;;;-141.97;67.14
7018;BME280;3549;42.162;24.726;2023-08-30T05:28:10;47538.28;;;-141.97;66.37
7018;BME280;3549;42.162;24.726;2023-08-30T05:30:35;47534.44;;;-141.97;65.75
7018;BME280;3549;42.162;24.726;2023-08-30T05:33:01;47513.31;;;-141.97;65.97
7018;BME280;3549;42.162;24.726;2023-08-30T05:35:27;47530.59;;;-141.97;65.82
7018;BME280;3549;42.162;24.726;2023-08-30T05:37:52;47503.69;;;-141.97;65.00
7018;BME280;3549;42.162;24.726;2023-08-30T05:40:18;47488.31;;;-141.97;64.30
7018;BME280;3549;42.162;24.726;2023-08-30T05:42:43;47526.75;;;-141.97;64.35
7018;BME280;3549;42.162;24.726;2023-08-30T05:45:10;47530.59;;;-141.97;63.78
7018;BME280;3549;42.162;24.726;2023-08-30T05:47:36;47515.22;;;-141.97;64.39
7018;BME280;3549;42.162;24.726;2023-08-30T05:50:01;47515.22;;;-141.97;64.14
7018;BME280;3549;42.162;24.726;2023-08-30T05:52:27;47507.53;;;-141.97;64.14
7018;BME280;3549;42.162;24.726;2023-08-30T05:54:52;47490.25;;;-141.97;64.98
7018;BME280;3549;42.162;24.726;2023-08-30T05:57:18;47534.44;;;-141.97;65.15
7018;BME280;3549;42.162;24.726;2023-08-30T05:59:43;47496.00;;;-141.97;64.29
7018;BME280;3549;42.162;24.726;2023-08-30T06:02:09;47492.16;;;-141.97;64.54
7018;BME280;3549;42.162;24.726;2023-08-30T06:04:35;47544.06;;;-141.97;65.13
7018;BME280;3549;42.162;24.726;2023-08-30T06:07:01;47526.75;;;-141.97;64.84
7018;BME280;3549;42.162;24.726;2023-08-30T06:09:26;47532.53;;;-141.97;65.00
7018;BME280;3549;42.162;24.726;2023-08-30T06:11:52;47551.75;;;-141.97;64.60
7018;BME280;3549;42.162;24.726;2023-08-30T06:14:17;47480.63;;;-141.97;65.63
7018;BME280;3549;42.162;24.726;2023-08-30T06:16:42;47490.25;;;-141.97;65.40
7018;BME280;3549;42.162;24.726;2023-08-30T06:19:12;47580.59;;;-141.97;65.73
7018;BME280;3549;42.162;24.726;2023-08-30T06:21:38;47515.22;;;-141.97;65.58
7018;BME280;3549;42.162;24.726;2023-08-30T06:24:03;47507.53;;;-141.97;64.65
7018;BME280;3549;42.162;24.726;2023-08-30T06:26:29;47474.88;;;-141.97;63.63
7018;BME280;3549;42.162;24.726;2023-08-30T06:28:54;47522.91;;;-141.97;62.90
7018;BME280;3549;42.162;24.726;2023-08-30T06:31:19;47503.69;;;-141.97;61.29
7018;BME280;3549;42.162;24.726;2023-08-30T06:33:45;47546.00;;;-141.97;60.98
7018;BME280;3549;42.162;24.726;2023-08-30T06:36:10;47488.31;;;-141.97;60.07
7018;BME280;3549;42.162;24.726;2023-08-30T06:38:37;47471.03;;;-141.97;58.99
7018;BME280;3549;42.162;24.726;2023-08-30T06:41:02;47507.53;;;-141.97;58.78
7018;BME280;3549;42.162;24.726;2023-08-30T06:43:28;47542.16;;;-141.97;57.85
7018;BME280;3549;42.162;24.726;2023-08-30T06:45:53;47507.53;;;-141.97;57.65
7018;BME280;3549;42.162;24.726;2023-08-30T06:48:18;47476.78;;;-141.97;57.08
7018;BME280;3549;42.162;24.726;2023-08-30T06:50:44;47449.88;;;-141.97;56.83
7018;BME280;3549;42.162;24.726;2023-08-30T06:53:09;47492.16;;;-141.97;56.48
7018;BME280;3549;42.162;24.726;2023-08-30T06:55:35;47469.09;;;-141.97;55.68
7018;BME280;3549;42.162;24.726;2023-08-30T06:58:02;47472.94;;;-141.97;55.32
7018;BME280;3549;42.162;24.726;2023-08-30T07:00:28;47478.72;;;-141.97;55.29
7018;BME280;3549;42.162;24.726;2023-08-30T07:02:53;47488.31;;;-141.97;54.92
7018;BME280;3549;42.162;24.726;2023-08-30T07:05:19;47482.56;;;-141.97;55.15
7018;BME280;3549;42.162;24.726;2023-08-30T07:07:44;47465.25;;;-141.97;56.00
7018;BME280;3549;42.162;24.726;2023-08-30T07:10:09;47472.94;;;-141.97;55.41
7018;BME280;3549;42.162;24.726;2023-08-30T07:12:35;47444.13;;;-141.97;54.28
7018;BME280;3549;42.162;24.726;2023-08-30T07:15:02;47457.56;;;-141.97;53.46
7018;BME280;3549;42.162;24.726;2023-08-30T07:17:29;47442.19;;;-141.97;52.81
7018;BME280;3549;42.162;24.726;2023-08-30T07:19:54;47348.03;;;-141.97;51.71
7018;BME280;3549;42.162;24.726;2023-08-30T07:22:19;47442.19;;;-141.97;51.04
7018;BME280;3549;42.162;24.726;2023-08-30T07:24:45;47438.34;;;-141.97;51.91
7018;BME280;3549;42.162;24.726;2023-08-30T07:27:11;47440.28;;;-141.97;51.50
7018;BME280;3549;42.162;24.726;2023-08-30T07:29:38;47455.66;;;-141.97;52.02
7018;BME280;3549;42.162;24.726;2023-08-30T07:32:05;47457.56;;;-141.97;51.26
7018;BME280;3549;42.162;24.726;2023-08-30T07:34:31;47449.88;;;-141.97;50.90
7018;BME280;3549;42.162;24.726;2023-08-30T07:36:56;47382.63;;;-141.97;50.65
7018;BME280;3549;42.162;24.726;2023-08-30T07:39:21;47461.41;;;-141.97;50.95
7018;BME280;3549;42.162;24.726;2023-08-30T07:41:47;47451.81;;;-141.97;49.13
7018;BME280;3549;42.162;24.726;2023-08-30T07:44:12;47409.53;;;-141.97;48.58
7018;BME280;3549;42.162;24.726;2023-08-30T07:46:38;47426.81;;;-141.97;48.70
7018;BME280;3549;42.162;24.726;2023-08-30T07:49:03;47438.34;;;-141.97;49.41
7018;BME280;3549;42.162;24.726;2023-08-30T07:51:28;47440.28;;;-141.97;48.27
7018;BME280;3549;42.162;24.726;2023-08-30T07:53:54;47438.34;;;-141.97;48.82
7018;BME280;3549;42.162;24.726;2023-08-30T07:56:19;47432.59;;;-141.97;49.65
7018;BME280;3549;42.162;24.726;2023-08-30T07:58:44;47388.38;;;-141.97;48.49
7018;BME280;3549;42.162;24.726;2023-08-30T08:01:10;47419.13;;;-141.97;48.90
7018;BME280;3549;42.162;24.726;2023-08-30T08:03:35;47415.28;;;-141.97;48.54
7018;BME280;3549;42.162;24.726;2023-08-30T08:06:01;47349.94;;;-141.97;47.92
7018;BME280;3549;42.162;24.726;2023-08-30T08:08:26;47430.66;;;-141.97;47.26
7018;BME280;3549;42.162;24.726;2023-08-30T08:10:51;47421.06;;;-141.97;46.35
7018;BME280;3549;42.162;24.726;2023-08-30T08:13:17;47409.53;;;-141.97;47.66
7018;BME280;3549;42.162;24.726;2023-08-30T08:15:42;47390.31;;;-141.97;45.67
7018;BME280;3549;42.162;24.726;2023-08-30T08:18:09;47419.13;;;-141.97;45.17
7018;BME280;3549;42.162;24.726;2023-08-30T08:20:34;47411.44;;;-141.97;45.38
7018;BME280;3549;42.162;24.726;2023-08-30T08:23:02;47353.78;;;-141.97;46.12
7018;BME280;3549;42.162;24.726;2023-08-30T08:25:27;47411.44;;;-141.97;46.16
7018;BME280;3549;42.162;24.726;2023-08-30T08:27:53;47428.75;;;-141.97;45.20
7018;BME280;3549;42.162;24.726;2023-08-30T08:30:18;47403.75;;;-141.97;44.02
7018;BME280;3549;42.162;24.726;2023-08-30T08:32:46;47361.47;;;-141.97;43.70
7018;BME280;3549;42.162;24.726;2023-08-30T08:35:13;47376.84;;;-141.97;42.71
7018;BME280;3549;42.162;24.726;2023-08-30T08:37:38;47365.31;;;-141.97;42.96
7018;BME280;3549;42.162;24.726;2023-08-30T08:40:04;47355.72;;;-141.97;42.87
7018;BME280;3549;42.162;24.726;2023-08-30T08:42:34;47365.31;;;-141.97;42.21
7018;BME280;3549;42.162;24.726;2023-08-30T08:45:00;47378.78;;;-141.97;41.68
7018;BME280;3549;42.162;24.726;2023-08-30T08:47:30;47359.56;;;-141.97;42.02
7018;BME280;3549;42.162;24.726;2023-08-30T08:49:56;47373.00;;;-141.97;42.47
7018;BME280;3549;42.162;24.726;2023-08-30T08:52:22;47365.31;;;-141.97;42.61
7018;BME280;3549;42.162;24.726;2023-08-30T08:54:48;47407.59;;;-141.97;42.45
7018;BME280;3549;42.162;24.726;2023-08-30T08:57:14;47388.38;;;-141.97;41.82
7018;BME280;3549;42.162;24.726;2023-08-30T08:59:39;47351.88;;;-141.97;41.46
7018;BME280;3549;42.162;24.726;2023-08-30T09:02:05;47351.88;;;-141.97;40.84
7018;BME280;3549;42.162;24.726;2023-08-30T09:04:31;47338.41;;;-141.97;40.09
7018;BME280;3549;42.162;24.726;2023-08-30T09:06:59;47365.31;;;-141.97;40.32
7018;BME280;3549;42.162;24.726;2023-08-30T09:09:25;47349.94;;;-141.97;40.11
7018;BME280;3549;42.162;24.726;2023-08-30T09:11:51;47338.41;;;-141.97;40.05
7018;BME280;3549;42.162;24.726;2023-08-30T09:14:16;47342.25;;;-141.97;39.15
7018;BME280;3549;42.162;24.726;2023-08-30T09:16:42;47342.25;;;-141.97;39.28
7018;BME280;3549;42.162;24.726;2023-08-30T09:19:07;47384.53;;;-141.97;39.72
7018;BME280;3549;42.162;24.726;2023-08-30T09:21:35;47328.81;;;-141.97;40.63
7018;BME280;3549;42.162;24.726;2023-08-30T09:24:02;47346.09;;;-141.97;39.50
7018;BME280;3549;42.162;24.726;2023-08-30T09:26:29;47357.63;;;-141.97;39.40
7018;BME280;3549;42.162;24.726;2023-08-30T09:29:04;47428.75;;;-141.97;40.53
7018;BME280;3549;42.162;24.726;2023-08-30T09:31:51;47374.94;;;-141.97;39.03
7018;BME280;3549;42.162;24.726;2023-08-30T09:34:23;47369.16;;;-141.97;39.89
7018;BME280;3549;42.162;24.726;2023-08-30T09:36:50;47369.16;;;-141.97;40.29
7018;BME280;3549;42.162;24.726;2023-08-30T09:39:15;47324.97;;;-141.97;39.64
7018;BME280;3549;42.162;24.726;2023-08-30T09:41:43;47361.47;;;-141.97;38.74
7018;BME280;3549;42.162;24.726;2023-08-30T09:44:16;47346.09;;;-141.97;38.20
7018;BME280;3549;42.162;24.726;2023-08-30T09:49:08;47430.66;;;-141.97;36.85
7018;BME280;3549;42.162;24.726;2023-08-30T09:51:35;47346.09;;;-141.97;36.79
7018;BME280;3549;42.162;24.726;2023-08-30T09:54:04;47296.13;;;-141.97;36.39
7018;BME280;3549;42.162;24.726;2023-08-30T09:56:31;47309.59;;;-141.97;36.42
7018;BME280;3549;42.162;24.726;2023-08-30T09:58:58;47303.81;;;-141.97;37.26
7018;BME280;3549;42.162;24.726;2023-08-30T10:01:26;47313.44;;;-141.97;37.35
7018;BME280;3549;42.162;24.726;2023-08-30T10:03:53;47321.13;;;-141.97;36.62
7018;BME280;3549;42.162;24.726;2023-08-30T10:06:20;47321.13;;;-141.97;36.37
7018;BME280;3549;42.162;24.726;2023-08-30T10:08:48;47307.66;;;-141.97;36.85
7018;BME280;3549;42.162;24.726;2023-08-30T10:11:14;47338.41;;;-141.97;37.18
7018;BME280;3549;42.162;24.726;2023-08-30T10:13:42;47326.88;;;-141.97;37.00
7018;BME280;3549;42.162;24.726;2023-08-30T10:16:12;47334.56;;;-141.97;37.69
7018;BME280;3549;42.162;24.726;2023-08-30T10:18:42;47338.41;;;-141.97;36.90
7018;BME280;3549;42.162;24.726;2023-08-30T10:21:11;47313.44;;;-141.97;36.76
7018;BME280;3549;42.162;24.726;2023-08-30T10:23:38;47290.38;;;-141.97;36.53
7018;BME280;3549;42.162;24.726;2023-08-30T10:26:05;47305.75;;;-141.97;36.16
7018;BME280;3549;42.162;24.726;2023-08-30T10:28:32;47296.13;;;-141.97;35.89
7018;BME280;3549;42.162;24.726;2023-08-30T10:30:59;47292.28;;;-141.97;35.46
7018;BME280;3549;42.162;24.726;2023-08-30T10:33:25;47275.00;;;-141.97;35.37
7018;BME280;3549;42.162;24.726;2023-08-30T10:35:51;47278.84;;;-141.97;35.12
7018;BME280;3549;42.162;24.726;2023-08-30T10:38:29;47292.28;;;-141.97;35.31
7018;BME280;3549;42.162;24.726;2023-08-30T10:40:55;47303.81;;;-141.97;35.25
7018;BME280;3549;42.162;24.726;2023-08-30T10:43:34;47336.50;;;-141.97;35.05
7018;BME280;3549;42.162;24.726;2023-08-30T10:46:05;47280.75;;;-141.97;35.69
7018;BME280;3549;42.162;24.726;2023-08-30T10:48:37;47330.72;;;-141.97;35.33
7018;BME280;3549;42.162;24.726;2023-08-30T10:51:05;47315.34;;;-141.97;36.04
7018;BME280;3549;42.162;24.726;2023-08-30T10:53:32;47276.91;;;-141.97;35.74
7018;BME280;3549;42.162;24.726;2023-08-30T10:56:15;47255.78;;;-141.97;35.55
7018;BME280;3549;42.162;24.726;2023-08-30T10:58:42;47242.31;;;-141.97;35.74
7018;BME280;3549;42.162;24.726;2023-08-30T11:01:10;47282.69;;;-141.97;35.04
7018;BME280;3549;42.162;24.726;2023-08-30T11:03:40;47307.66;;;-141.97;34.75
7018;BME280;3549;42.162;24.726;2023-08-30T11:06:07;47276.91;;;-141.97;34.85
7018;BME280;3549;42.162;24.726;2023-08-30T11:08:32;47342.25;;;-141.97;34.21
7018;BME280;3549;42.162;24.726;2023-08-30T11:11:05;47280.75;;;-141.97;34.39
7018;BME280;3549;42.162;24.726;2023-08-30T11:13:31;47299.97;;;-141.97;33.92
7018;BME280;3549;42.162;24.726;2023-08-30T11:16:03;47273.06;;;-141.97;33.44
7018;BME280;3549;42.162;24.726;2023-08-30T11:18:39;47269.22;;;-141.97;33.43
7018;BME280;3549;42.162;24.726;2023-08-30T11:21:05;47261.53;;;-141.97;33.42
7018;BME280;3549;42.162;24.726;2023-08-30T11:23:31;47278.84;;;-141.97;33.71
7018;BME280;3549;42.162;24.726;2023-08-30T11:25:57;47299.97;;;-141.97;33.73
7018;BME280;3549;42.162;24.726;2023-08-30T11:28:23;47276.91;;;-141.97;34.30
7018;BME280;3549;42.162;24.726;2023-08-30T11:30:49;47324.97;;;-141.97;34.27
7018;BME280;3549;42.162;24.726;2023-08-30T11:33:18;47301.91;;;-141.97;33.90
7018;BME280;3549;42.162;24.726;2023-08-30T11:35:49;47286.53;;;-141.97;33.76
7018;BME280;3549;42.162;24.726;2023-08-30T11:38:14;47261.53;;;-141.97;34.97
7018;BME280;3549;42.162;24.726;2023-08-30T11:40:40;47253.84;;;-141.97;34.25
7018;BME280;3549;42.162;24.726;2023-08-30T11:43:06;47278.84;;;-141.97;33.77
7018;BME280;3549;42.162;24.726;2023-08-30T11:45:33;47242.31;;;-141.97;33.30
7018;BME280;3549;42.162;24.726;2023-08-30T11:48:01;47226.94;;;-141.97;32.39
7018;BME280;3549;42.162;24.726;2023-08-30T11:50:27;47230.78;;;-141.97;31.80
7018;BME280;3549;42.162;24.726;2023-08-30T11:52:53;47244.25;;;-141.97;32.83
7018;BME280;3549;42.162;24.726;2023-08-30T11:55:21;47373.00;;;-141.97;33.14
7018;BME280;3549;42.162;24.726;2023-08-30T11:57:49;47276.91;;;-141.97;34.50
7018;BME280;3549;42.162;24.726;2023-08-30T12:00:18;47428.75;;;-141.97;34.74
7018;BME280;3549;42.162;24.726;2023-08-30T12:02:45;47276.91;;;-141.97;33.63
7018;BME280;3549;42.162;24.726;2023-08-30T12:05:12;47226.94;;;-141.97;32.72
7018;BME280;3549;42.162;24.726;2023-08-30T12:07:38;47196.19;;;-141.97;32.83
7018;BME280;3549;42.162;24.726;2023-08-30T12:10:06;47265.38;;;-141.97;32.88
7018;BME280;3549;42.162;24.726;2023-08-30T12:12:32;47184.66;;;-141.97;32.25
7018;BME280;3549;42.162;24.726;2023-08-30T12:14:57;47319.19;;;-141.97;31.96
7018;BME280;3549;42.162;24.726;2023-08-30T12:17:23;47196.19;;;-141.97;32.71
7018;BME280;3549;42.162;24.726;2023-08-30T12:19:58;47201.97;;;-141.97;32.31
7018;BME280;3549;42.162;24.726;2023-08-30T12:22:37;47157.75;;;-141.97;30.78
7018;BME280;3549;42.162;24.726;2023-08-30T12:25:03;47115.47;;;-141.97;30.01
7018;BME280;3549;42.162;24.726;2023-08-30T12:27:29;47117.41;;;-141.97;30.02
7018;BME280;3549;42.162;24.726;2023-08-30T12:29:55;47100.09;;;-141.97;29.73
7018;BME280;3549;42.162;24.726;2023-08-30T12:32:20;47132.78;;;-141.97;28.62
7018;BME280;3549;42.162;24.726;2023-08-30T12:34:46;47136.63;;;-141.97;29.26
7018;BME280;3549;42.162;24.726;2023-08-30T12:37:11;47142.38;;;-141.97;30.46
7018;BME280;3549;42.162;24.726;2023-08-30T12:39:36;47203.88;;;-141.97;31.18
7018;BME280;3549;42.162;24.726;2023-08-30T12:42:02;47163.53;;;-141.97;31.46
7018;BME280;3549;42.162;24.726;2023-08-30T12:44:27;47171.22;;;-141.97;30.78
7018;BME280;3549;42.162;24.726;2023-08-30T12:46:53;47123.16;;;-141.97;30.18
7018;BME280;3549;42.162;24.726;2023-08-30T12:49:18;47123.16;;;-141.97;29.76
7018;BME280;3549;42.162;24.726;2023-08-30T12:51:43;47102.03;;;-141.97;29.16
7018;BME280;3549;42.162;24.726;2023-08-30T12:54:09;47123.16;;;-141.97;29.33